Aviation Digital Data Service (ADDS)

Output produced by TAFs form (0846 UTC 25 April 2015)
found at http://aviationweather.gov/adds/tafs/
 
KASE 250530Z 2506/2606 20005KT P6SM VCSH SCT080 
     FM251200 21005KT P6SM -SHRA BKN030 
     FM251800 34008KT P6SM VCSH SCT030 OVC050 
     TEMPO 2520/2524 VRB15G30KT 5SM -TSRA SCT030 BKN040CB